Time;durP1;ratioP1;P1;durP2;ratioP2;P2;SDS_P1;SDS_P2;PMS_P1;PMS_P2;Temp;Humidity;BMP_temperature;BMP_pressure;BME280_temperature;BME280_humidity;BME280_pressure;Samples;Min_cycle;Max_cycle;Signal;HPM_P1;HPM_P2
2021/11/05 00:08:15;;;;;;;;;;;;;;;7.34;100.00;98913.03;4949876;28;19985;-66
2021/11/05 00:10:41;;;;;;;;;;;;;;;7.23;100.00;98925.22;4950629;28;20402;-66
2021/11/05 05:35:28;;;;;;;;;;;;;;;7.12;100.00;99323.25;4968188;28;20305;-66
2021/11/05 05:41:20;;;;;;;;;;;;;;;6.95;100.00;99329.44;4971855;28;20948;-66
2021/11/05 05:56:15;;;;;;;;;;;;;;;7.57;100.00;99314.09;4942280;29;20306;-68
2021/11/05 05:59:06;;;;;;;;;;;;;;;7.52;100.00;99320.13;4943071;29;20522;-68
2021/11/05 06:01:54;;;;;;;;;;;;;;;7.31;100.00;99333.25;4940177;29;19962;-68
2021/11/05 06:04:39;;;;;;;;;;;;;;;7.20;100.00;99342.78;4941268;29;19915;-68
2021/11/05 06:10:13;;;;;;;;;;;;;;;7.21;100.00;99363.25;4939454;29;19928;-68
2021/11/05 06:12:42;;;;;;;;;;;;;;;6.94;100.00;99364.44;4921415;29;19949;-68
2021/11/05 06:15:12;;;;;;;;;;;;;;;6.97;100.00;99372.06;4945642;28;19922;-71
2021/11/05 06:17:40;;;;;;;;;;;;;;;6.96;100.00;99379.78;4971830;28;20273;-71
2021/11/05 06:20:19;;;;;;;;;;;;;;;6.96;100.00;99388.31;4968563;28;19918;-71
2021/11/05 06:23:09;;;;;;;;;;;;;;;6.77;100.00;99397.88;4945815;28;19922;-71
2021/11/05 07:50:17;;;;;;;;;;;;;;;7.90;100.00;99523.84;4967778;28;20924;-71
2021/11/05 07:53:14;;;;;;;;;;;;;;;8.10;100.00;99517.63;4970194;28;20377;-70
2021/11/05 20:09:57;;;;;;;;;;;;;;;9.03;100.00;100183.34;4997629;27;2472979;-69
2021/11/05 20:12:23;;;;;;;;;;;;;;;8.85;100.00;100181.78;5059376;28;19919;-70
2021/11/05 20:14:49;;;;;;;;;;;;;;;8.90;100.00;100181.75;5083728;28;19945;-70
2021/11/05 20:17:15;;;;;;;;;;;;;;;8.52;100.00;100190.50;5083932;28;20854;-69
2021/11/05 20:19:40;;;;;;;;;;;;;;;8.67;100.00;100194.72;5085806;28;19931;-70
2021/11/05 20:22:08;;;;;;;;;;;;;;;8.84;100.00;100197.19;5084048;28;19970;-69
2021/11/05 20:24:37;;;;;;;;;;;;;;;8.89;100.00;100191.13;5067059;28;20388;-64
2021/11/05 20:27:02;;;;;;;;;;;;;;;9.21;100.00;100177.22;5085212;28;19916;-69
2021/11/05 20:29:40;;;;;;;;;;;;;;;9.01;100.00;100179.97;5084563;28;19920;-69
2021/11/05 20:32:06;;;;;;;;;;;;;;;9.05;100.00;100180.78;5085698;28;19931;-69
2021/11/05 20:34:31;;;;;;;;;;;;;;;8.94;100.00;100178.25;5105290;28;20868;-69
2021/11/05 20:36:57;;;;;;;;;;;;;;;9.27;100.00;100176.34;5120671;28;19915;-69
2021/11/05 20:39:25;;;;;;;;;;;;;;;8.84;100.00;100168.91;5082135;28;19951;-69
2021/11/05 20:41:51;;;;;;;;;;;;;;;9.41;100.00;100169.34;5100817;28;19916;-69
2021/11/05 20:44:18;;;;;;;;;;;;;;;9.37;100.00;100165.97;5105158;28;19922;-69
2021/11/05 20:46:44;;;;;;;;;;;;;;;9.35;100.00;100165.13;5105666;27;19916;-69
2021/11/05 20:49:11;;;;;;;;;;;;;;;9.62;100.00;100158.03;5123564;27;19968;-69
2021/11/05 20:54:42;;;;;;;;;;;;;;;9.73;100.00;100163.06;5100590;28;19923;-70
2021/11/05 20:57:09;;;;;;;;;;;;;;;9.06;100.00;100157.66;5083937;28;19997;-69
2021/11/05 20:59:37;;;;;;;;;;;;;;;9.70;100.00;100160.53;5092539;28;20426;-69
2021/11/05 21:02:03;;;;;;;;;;;;;;;9.34;100.00;100162.56;5082550;28;19917;-69
2021/11/05 21:04:28;;;;;;;;;;;;;;;9.26;100.00;100169.47;5111318;27;19948;-69
2021/11/05 21:06:54;;;;;;;;;;;;;;;9.12;100.00;100180.75;5093559;28;19923;-69
2021/11/05 21:09:20;;;;;;;;;;;;;;;9.31;100.00;100183.16;5090846;28;19927;-69
2021/11/05 21:11:50;;;;;;;;;;;;;;;9.33;100.00;100187.44;5107414;28;19912;-69
2021/11/05 21:14:17;;;;;;;;;;;;;;;9.09;100.00;100192.75;5106731;27;19923;-69
2021/11/05 21:16:44;;;;;;;;;;;;;;;9.31;100.00;100199.44;5112389;27;19919;-69
2021/11/05 21:19:12;;;;;;;;;;;;;;;9.14;100.00;100191.81;5100541;28;19979;-69
2021/11/05 21:21:39;;;;;;;;;;;;;;;9.19;100.00;100196.94;5105999;27;19911;-69
2021/11/05 21:24:07;;;;;;;;;;;;;;;9.16;100.00;100194.41;5098355;28;19915;-69
2021/11/05 21:26:35;;;;;;;;;;;;;;;9.11;100.00;100199.56;5106711;28;19920;-69
2021/11/05 21:29:01;;;;;;;;;;;;;;;9.13;100.00;100200.41;5102562;28;19926;-69
2021/11/05 21:31:26;;;;;;;;;;;;;;;9.23;100.00;100192.66;5085244;27;20461;-69
2021/11/05 21:33:54;;;;;;;;;;;;;;;9.07;100.00;100194.47;5108535;28;20501;-69
2021/11/05 21:36:21;;;;;;;;;;;;;;;9.30;100.00;100202.00;5097760;28;20532;-69
2021/11/05 21:38:47;;;;;;;;;;;;;;;9.23;100.00;100195.22;5107668;28;19926;-69
2021/11/05 21:41:15;;;;;;;;;;;;;;;9.12;100.00;100203.88;5100488;28;19916;-69
2021/11/05 21:43:44;;;;;;;;;;;;;;;8.73;100.00;100220.34;5095023;28;19973;-69
2021/11/05 21:46:13;;;;;;;;;;;;;;;9.07;100.00;100236.44;5095812;28;19920;-69
2021/11/05 21:48:39;;;;;;;;;;;;;;;9.04;100.00;100230.47;5106313;28;19912;-69
2021/11/05 21:51:06;;;;;;;;;;;;;;;9.02;100.00;100243.31;5093910;28;19916;-69
2021/11/05 21:53:34;;;;;;;;;;;;;;;9.15;100.00;100247.53;5107485;27;19916;-69
2021/11/05 21:56:05;;;;;;;;;;;;;;;9.09;100.00;100241.56;5099149;28;19920;-69
2021/11/05 21:58:31;;;;;;;;;;;;;;;8.75;100.00;100240.03;5100600;28;19927;-70
2021/11/05 22:00:57;;;;;;;;;;;;;;;9.00;100.00;100245.88;5105907;28;19988;-69
2021/11/05 22:03:24;;;;;;;;;;;;;;;9.29;100.00;100246.59;5100228;28;20354;-69
2021/11/05 22:05:51;;;;;;;;;;;;;;;9.12;100.00;100244.09;5101620;28;19916;-69
2021/11/05 22:08:22;;;;;;;;;;;;;;;9.31;100.00;100234.56;5098869;28;19920;-69
2021/11/05 22:23:21;;;;;;;;;;;;;;;8.90;100.00;100246.81;5099351;28;20329;-69
2021/11/05 22:44:27;;;;;;;;;;;;;;;8.78;100.00;100263.13;5042579;28;19920;-69
2021/11/05 22:47:17;;;;;;;;;;;;;;;8.74;100.00;100253.72;5024376;28;19913;-69
2021/11/05 22:56:42;;;;;;;;;;;;;;;8.97;100.00;100263.06;5004228;28;20486;-69
2021/11/05 23:06:02;;;;;;;;;;;;;;;8.63;100.00;100260.63;4965823;28;20111;-69
2021/11/05 23:15:20;;;;;;;;;;;;;;;8.74;100.00;100261.44;4939873;28;19933;-69
2021/11/05 23:17:49;;;;;;;;;;;;;;;8.74;100.00;100251.16;4948988;28;20409;-69
2021/11/05 23:20:18;;;;;;;;;;;;;;;8.55;100.00;100257.22;4962844;28;19933;-69
2021/11/05 23:22:47;;;;;;;;;;;;;;;9.00;100.00;100257.88;4968471;28;20004;-69
2021/11/05 23:25:12;;;;;;;;;;;;;;;8.74;100.00;100253.72;4965251;28;20390;-69
2021/11/05 23:27:39;;;;;;;;;;;;;;;8.56;100.00;100253.81;4959298;28;19957;-69
2021/11/05 23:30:05;;;;;;;;;;;;;;;8.45;100.00;100251.28;4957761;28;20495;-69
2021/11/05 23:32:32;;;;;;;;;;;;;;;8.07;100.00;100253.91;4976720;28;19921;-69
2021/11/05 23:35:02;;;;;;;;;;;;;;;8.46;100.00;100267.53;4962691;28;19960;-69
2021/11/05 23:37:27;;;;;;;;;;;;;;;8.49;100.00;100267.53;4937672;28;19922;-69
2021/11/05 23:39:54;;;;;;;;;;;;;;;8.58;100.00;100268.34;4949928;28;19925;-68
2021/11/05 23:42:20;;;;;;;;;;;;;;;8.07;100.00;100259.03;4985610;28;20394;-68
2021/11/05 23:44:47;;;;;;;;;;;;;;;8.37;100.00;100271.81;5016852;28;20923;-68
2021/11/05 23:47:14;;;;;;;;;;;;;;;7.89;100.00;100271.03;5085810;28;19911;-68
2021/11/05 23:49:42;;;;;;;;;;;;;;;8.14;100.00;100270.97;5082971;28;20625;-68
2021/11/05 23:52:07;;;;;;;;;;;;;;;8.25;100.00;100268.41;5084378;28;20529;-68
2021/11/05 23:54:33;;;;;;;;;;;;;;;8.22;100.00;100266.69;5082416;28;19999;-68
2021/11/05 23:56:59;;;;;;;;;;;;;;;8.06;100.00;100259.91;5086933;28;20022;-68
2021/11/05 23:59:25;;;;;;;;;;;;;;;8.05;100.00;100256.47;5086063;28;19949;-68
